createdAt,value
2024-03-15T00:00:27.123Z,10.65
2024-03-15T00:02:55.654Z,8.57
2024-03-15T00:05:25.305Z,13.15
2024-03-15T00:07:53.183Z,9.18
2024-03-15T00:10:21.145Z,11.50
2024-03-15T00:12:49.174Z,26.98
2024-03-15T00:15:17.730Z,11.32
2024-03-15T00:17:45.727Z,8.80
2024-03-15T00:20:13.741Z,10.52
2024-03-15T00:22:41.630Z,9.88
2024-03-15T00:25:09.692Z,19.02
2024-03-15T00:27:37.541Z,9.85
2024-03-15T00:30:06.684Z,9.25
2024-03-15T00:32:34.651Z,17.55
2024-03-15T00:35:02.554Z,9.57
2024-03-15T00:37:30.360Z,11.43
2024-03-15T00:39:58.331Z,13.15
2024-03-15T00:42:26.267Z,11.35
2024-03-15T00:44:54.072Z,8.50
2024-03-15T00:47:22.042Z,8.77
2024-03-15T00:49:49.859Z,10.75
2024-03-15T00:52:18.804Z,11.00
2024-03-15T00:54:47.598Z,12.68
2024-03-15T00:57:15.608Z,10.85
2024-03-15T00:59:43.393Z,7.55
2024-03-15T01:02:11.267Z,9.02
2024-03-15T01:04:39.109Z,13.15
2024-03-15T01:07:07.384Z,12.27
2024-03-15T01:09:35.301Z,11.90
2024-03-15T01:12:03.322Z,11.75
2024-03-15T01:14:31.507Z,10.32
2024-03-15T01:16:59.348Z,13.55
2024-03-15T01:19:28.232Z,10.95
2024-03-15T01:21:56.355Z,11.07
2024-03-15T01:24:24.842Z,10.48
2024-03-15T01:26:52.816Z,9.45
2024-03-15T01:29:20.699Z,8.18
2024-03-15T01:31:48.711Z,10.10
2024-03-15T01:34:17.820Z,15.05
2024-03-15T01:36:45.692Z,7.70
2024-03-15T01:39:13.735Z,11.02
2024-03-15T01:41:41.870Z,10.18
2024-03-15T01:44:09.858Z,8.73
2024-03-15T01:46:37.797Z,9.77
2024-03-15T01:49:07.411Z,9.43
2024-03-15T01:51:47.319Z,7.50
2024-03-15T01:54:15.240Z,8.15
2024-03-15T01:56:43.457Z,10.38
2024-03-15T01:59:12.647Z,9.20
2024-03-15T02:01:40.601Z,12.80
2024-03-15T02:04:09.206Z,9.27
2024-03-15T02:06:39.541Z,8.95
2024-03-15T02:09:08.635Z,9.95
2024-03-15T02:11:36.768Z,11.43
2024-03-15T02:14:04.714Z,10.85
2024-03-15T02:16:32.649Z,11.60
2024-03-15T02:19:01.125Z,12.38
2024-03-15T02:21:29.109Z,10.90
2024-03-15T02:23:56.974Z,8.70
2024-03-15T02:26:24.897Z,10.27
2024-03-15T02:28:52.755Z,9.05
2024-03-15T02:31:21.033Z,8.63
2024-03-15T02:33:48.937Z,9.70
2024-03-15T02:36:16.875Z,8.63
2024-03-15T02:38:44.745Z,9.32
2024-03-15T02:41:14.837Z,9.98
2024-03-15T02:43:42.697Z,7.28
2024-03-15T02:46:11.310Z,9.30
2024-03-15T02:48:40.069Z,8.32
2024-03-15T02:51:08.043Z,10.60
2024-03-15T02:53:36.100Z,9.82
2024-03-15T02:56:04.123Z,9.27
2024-03-15T02:58:32.011Z,9.45
2024-03-15T03:01:00.330Z,8.35
2024-03-15T03:03:28.302Z,10.07
2024-03-15T03:05:58.941Z,9.35
2024-03-15T03:08:26.875Z,12.80
2024-03-15T03:10:55.007Z,11.02
2024-03-15T03:13:23.105Z,10.32
2024-03-15T03:15:51.317Z,9.95
2024-03-15T03:18:19.291Z,12.68
2024-03-15T03:20:47.304Z,12.85
2024-03-15T03:23:15.391Z,11.13
2024-03-15T03:25:43.267Z,12.23
2024-03-15T03:28:11.176Z,7.97
2024-03-15T03:30:39.080Z,9.80
2024-03-15T03:33:07.106Z,9.82
2024-03-15T03:35:35.018Z,13.43
2024-03-15T03:38:03.863Z,16.48
2024-03-15T03:40:31.856Z,8.73
2024-03-15T03:42:59.709Z,8.68
2024-03-15T03:45:28.675Z,11.15
2024-03-15T03:47:59.915Z,10.48
2024-03-15T03:50:27.915Z,9.70
2024-03-15T03:52:56.813Z,10.93
2024-03-15T03:55:25.610Z,11.98
2024-03-15T03:57:55.368Z,11.65
2024-03-15T04:00:25.137Z,12.90
2024-03-15T04:02:53.947Z,9.55
2024-03-15T04:05:22.252Z,16.00
2024-03-15T04:07:50.207Z,12.02
2024-03-15T04:10:18.280Z,11.25
2024-03-15T04:12:46.837Z,11.32
2024-03-15T04:15:25.067Z,11.95
2024-03-15T04:17:59.137Z,11.63
2024-03-15T04:20:28.396Z,11.70
2024-03-15T04:22:57.435Z,12.82
2024-03-15T04:25:27.838Z,10.60
2024-03-15T04:27:56.801Z,13.27
2024-03-15T04:30:25.325Z,13.63
2024-03-15T04:32:57.003Z,11.10
2024-03-15T04:35:28.611Z,12.02
2024-03-15T04:37:56.826Z,12.50
2024-03-15T04:40:27.318Z,13.35
2024-03-15T04:42:56.888Z,12.07
2024-03-15T04:45:25.058Z,12.48
2024-03-15T04:47:53.079Z,13.45
2024-03-15T04:50:21.182Z,13.05
2024-03-15T04:52:51.341Z,12.88
2024-03-15T04:55:19.836Z,10.43
2024-03-15T04:57:49.133Z,15.73
2024-03-15T05:00:22.279Z,11.88
2024-03-15T05:02:52.127Z,11.23
2024-03-15T05:05:22.914Z,9.43
2024-03-15T05:07:51.486Z,17.02
2024-03-15T05:10:19.974Z,14.10
2024-03-15T05:12:49.415Z,15.57
2024-03-15T05:15:18.039Z,15.18
2024-03-15T05:17:46.051Z,14.52
2024-03-15T05:20:14.913Z,13.98
2024-03-15T05:22:45.365Z,15.55
2024-03-15T05:25:15.546Z,11.48
2024-03-15T05:27:44.222Z,14.40
2024-03-15T05:30:13.209Z,13.25
2024-03-15T05:32:41.507Z,13.65
2024-03-15T05:35:09.729Z,14.52
2024-03-15T05:37:37.605Z,15.90
2024-03-15T05:40:07.214Z,12.82
2024-03-15T05:42:37.032Z,17.00
2024-03-15T05:45:06.193Z,15.13
2024-03-15T05:47:34.682Z,14.52
2024-03-15T05:50:05.227Z,12.43
2024-03-15T05:52:34.381Z,12.60
2024-03-15T05:55:03.076Z,17.45
2024-03-15T05:57:31.755Z,15.40
2024-03-15T06:00:04.700Z,16.17
2024-03-15T06:02:40.174Z,16.27
2024-03-15T06:05:08.724Z,17.80
2024-03-15T06:07:37.412Z,21.55
2024-03-15T06:10:05.886Z,18.73
2024-03-15T06:12:34.099Z,19.75
2024-03-15T06:15:03.563Z,18.00
2024-03-15T06:17:32.773Z,18.33
2024-03-15T06:20:01.049Z,22.73
2024-03-15T06:22:29.009Z,19.65
2024-03-15T06:24:58.907Z,41.38
2024-03-15T06:27:27.973Z,22.33
2024-03-15T06:29:56.655Z,18.42
2024-03-15T06:32:28.395Z,17.65
2024-03-15T06:34:58.896Z,19.48
2024-03-15T06:41:55.032Z,15.32
2024-03-15T06:44:26.350Z,32.75
2024-03-15T06:47:17.948Z,23.58
2024-03-15T06:49:49.455Z,18.17
2024-03-15T06:52:35.325Z,27.92
2024-03-15T06:55:04.691Z,17.30
2024-03-15T06:57:34.034Z,18.35
2024-03-15T07:00:04.194Z,19.45
2024-03-15T07:02:32.180Z,19.65
2024-03-15T07:05:00.060Z,16.05
2024-03-15T07:07:28.297Z,20.75
2024-03-15T07:09:56.803Z,23.02
2024-03-15T07:12:24.803Z,19.13
2024-03-15T07:14:54.722Z,19.83
2024-03-15T07:17:23.937Z,20.20
2024-03-15T07:20:43.362Z,20.42
2024-03-15T07:23:15.073Z,22.92
2024-03-15T07:25:44.473Z,24.80
2024-03-15T07:28:12.474Z,22.60
2024-03-15T07:30:40.625Z,18.00
2024-03-15T07:33:09.341Z,17.55
2024-03-15T07:35:37.409Z,13.68
2024-03-15T07:38:06.343Z,20.67
2024-03-15T07:40:34.268Z,20.63
2024-03-15T07:43:02.231Z,18.00
2024-03-15T07:45:30.249Z,17.63
2024-03-15T07:47:58.721Z,19.60
2024-03-15T07:50:27.025Z,21.45
2024-03-15T07:52:54.927Z,17.90
2024-03-15T07:55:22.852Z,18.20
2024-03-15T07:57:50.826Z,18.77
2024-03-15T08:00:20.248Z,18.30
2024-03-15T08:02:48.276Z,14.43
2024-03-15T08:05:17.393Z,19.50
2024-03-15T08:07:45.456Z,17.77
2024-03-15T08:10:15.762Z,19.65
2024-03-15T08:12:44.227Z,19.20
2024-03-15T08:15:15.106Z,19.33
2024-03-15T08:17:45.091Z,16.77
2024-03-15T08:20:13.281Z,17.88
2024-03-15T08:22:41.264Z,22.27
2024-03-15T08:25:10.569Z,19.65
2024-03-15T08:27:41.007Z,18.80
2024-03-15T08:30:10.143Z,18.02
2024-03-15T08:32:38.050Z,17.17
2024-03-15T08:35:06.430Z,14.63
2024-03-15T08:37:34.371Z,15.90
2024-03-15T08:40:04.424Z,17.42
2024-03-15T08:42:32.531Z,15.68
2024-03-15T08:45:00.858Z,14.50
2024-03-15T08:47:38.457Z,15.73
2024-03-15T08:50:15.116Z,15.52
2024-03-15T08:52:43.164Z,14.23
2024-03-15T08:55:12.391Z,11.77
2024-03-15T08:57:40.720Z,15.88
2024-03-15T09:00:13.144Z,15.18
2024-03-15T09:02:41.163Z,17.08
2024-03-15T09:05:09.988Z,16.42
2024-03-15T09:07:38.298Z,13.55
2024-03-15T09:10:09.032Z,17.13
2024-03-15T09:12:37.309Z,13.68
2024-03-15T09:15:09.131Z,13.68
2024-03-15T09:17:37.921Z,13.88
2024-03-15T09:20:15.521Z,14.45
2024-03-15T09:22:43.603Z,14.88
2024-03-15T09:25:19.651Z,10.23
2024-03-15T09:27:50.131Z,11.25
2024-03-15T09:30:27.795Z,13.60
2024-03-15T09:32:56.114Z,12.85
2024-03-15T09:35:25.064Z,10.45
2024-03-15T09:37:52.975Z,11.20
2024-03-15T09:40:22.251Z,12.52
2024-03-15T09:42:53.947Z,13.50
2024-03-15T09:45:22.690Z,10.80
2024-03-15T09:47:51.754Z,17.48
2024-03-15T09:50:23.225Z,12.27
2024-03-15T09:52:52.112Z,17.83
2024-03-15T09:55:21.192Z,9.80
2024-03-15T09:57:50.153Z,14.63
2024-03-15T10:00:20.186Z,12.40
2024-03-15T10:02:49.613Z,15.02
2024-03-15T10:05:17.519Z,15.88
2024-03-15T10:07:45.526Z,17.08
2024-03-15T10:10:13.704Z,9.27
2024-03-15T10:12:42.231Z,11.82
2024-03-15T10:15:11.940Z,12.93
2024-03-15T10:17:41.174Z,11.90
2024-03-15T10:20:13.487Z,11.32
2024-03-15T10:22:41.728Z,12.02
2024-03-15T10:25:13.324Z,14.88
2024-03-15T10:27:41.317Z,13.55
2024-03-15T10:30:11.638Z,9.48
2024-03-15T10:32:39.694Z,12.80
2024-03-15T10:35:08.086Z,17.95
2024-03-15T10:37:36.026Z,10.27
2024-03-15T10:40:05.784Z,12.25
2024-03-15T10:42:34.412Z,17.85
2024-03-15T10:45:02.324Z,15.10
2024-03-15T10:47:31.103Z,9.43
2024-03-15T10:49:59.539Z,9.48
2024-03-15T10:52:27.479Z,10.35
2024-03-15T10:54:55.327Z,8.30
2024-03-15T10:57:23.272Z,11.70
2024-03-15T10:59:51.258Z,7.30
2024-03-15T11:02:19.126Z,12.25
2024-03-15T11:04:47.286Z,9.52
2024-03-15T11:07:16.409Z,13.13
2024-03-15T11:09:44.836Z,10.18
2024-03-15T11:12:13.190Z,11.57
2024-03-15T11:14:43.025Z,14.38
2024-03-15T11:17:11.009Z,8.05
2024-03-15T11:19:42.432Z,10.88
2024-03-15T11:22:17.430Z,10.40
2024-03-15T11:24:49.238Z,15.70
2024-03-15T11:27:18.095Z,9.27
2024-03-15T11:29:46.781Z,11.10
2024-03-15T11:32:15.168Z,12.13
2024-03-15T11:34:43.483Z,10.70
2024-03-15T11:37:12.666Z,10.98
2024-03-15T11:39:40.823Z,9.82
2024-03-15T11:42:08.852Z,10.68
2024-03-15T11:44:37.101Z,10.85
2024-03-15T11:47:06.547Z,11.93
2024-03-15T11:49:34.603Z,10.43
2024-03-15T11:52:02.572Z,13.60
2024-03-15T11:54:30.549Z,10.85
2024-03-15T11:56:59.781Z,13.55
2024-03-15T11:59:28.312Z,21.00
2024-03-15T12:01:56.359Z,13.45
2024-03-15T12:04:26.811Z,14.30
2024-03-15T12:06:56.119Z,10.93
2024-03-15T12:09:24.163Z,13.32
2024-03-15T12:11:54.963Z,12.60
2024-03-15T12:14:23.674Z,16.17
2024-03-15T12:16:51.518Z,13.68
2024-03-15T12:19:19.610Z,12.18
2024-03-15T12:21:48.331Z,14.55
2024-03-15T12:24:16.361Z,10.82
2024-03-15T12:26:44.348Z,9.55
2024-03-15T12:29:12.212Z,16.85
2024-03-15T12:31:42.493Z,15.13
2024-03-15T12:34:10.731Z,12.10
2024-03-15T12:36:39.705Z,13.48
2024-03-15T12:39:10.588Z,16.40
2024-03-15T12:41:42.523Z,15.77
2024-03-15T12:44:10.529Z,12.90
2024-03-15T12:46:38.484Z,14.20
2024-03-15T12:49:06.475Z,18.00
2024-03-15T12:51:34.400Z,115.38
2024-03-15T12:54:02.371Z,60.90
2024-03-15T12:56:30.266Z,17.45
2024-03-15T12:58:58.182Z,15.52
2024-03-15T13:01:26.350Z,16.17
2024-03-15T13:03:54.597Z,16.45
2024-03-15T13:06:22.679Z,16.00
2024-03-15T13:08:52.124Z,10.38
2024-03-15T13:11:21.450Z,13.77
2024-03-15T13:13:49.527Z,15.80
2024-03-15T13:16:17.500Z,14.75
2024-03-15T13:18:45.439Z,11.63
2024-03-15T13:21:13.619Z,15.48
2024-03-15T13:23:41.586Z,13.30
2024-03-15T13:26:09.541Z,15.43
2024-03-15T13:28:37.382Z,13.45
2024-03-15T13:31:06.213Z,9.70
2024-03-15T13:33:40.194Z,15.65
2024-03-15T13:36:10.429Z,15.38
2024-03-15T13:38:39.922Z,18.20
2024-03-15T13:41:08.407Z,11.82
2024-03-15T13:43:36.259Z,13.43
2024-03-15T13:46:07.252Z,8.18
2024-03-15T13:48:35.603Z,13.80
2024-03-15T13:51:04.835Z,10.95
2024-03-15T13:53:33.391Z,14.80
2024-03-15T13:56:01.249Z,12.65
2024-03-15T13:58:29.121Z,10.95
2024-03-15T14:00:59.241Z,11.95
2024-03-15T14:03:31.207Z,12.95
2024-03-15T14:05:59.172Z,8.48
2024-03-15T14:08:27.088Z,8.70
2024-03-15T14:10:54.967Z,9.75
2024-03-15T14:13:23.121Z,12.05
2024-03-15T14:15:53.206Z,10.10
2024-03-15T14:18:21.433Z,12.27
2024-03-15T14:20:49.291Z,9.18
2024-03-15T14:23:17.462Z,10.15
2024-03-15T14:25:46.637Z,5.75
2024-03-15T14:28:14.836Z,8.98
2024-03-15T14:30:43.093Z,8.05
2024-03-15T14:33:11.942Z,12.80
2024-03-15T14:35:40.577Z,9.88
2024-03-15T14:38:10.810Z,9.10
2024-03-15T14:40:40.233Z,9.80
2024-03-15T14:43:09.707Z,12.68
2024-03-15T14:45:38.669Z,5.93
2024-03-15T14:48:14.634Z,5.78
2024-03-15T14:50:44.182Z,9.52
2024-03-15T14:53:14.733Z,10.50
2024-03-15T14:55:44.917Z,7.43
2024-03-15T14:58:14.284Z,8.65
2024-03-15T15:00:44.038Z,15.15
2024-03-15T15:03:12.855Z,11.43
2024-03-15T15:05:41.157Z,9.13
2024-03-15T15:08:10.637Z,14.88
2024-03-15T15:10:40.265Z,7.60
2024-03-15T15:13:10.890Z,9.65
2024-03-15T15:15:39.796Z,10.55
2024-03-15T15:18:08.805Z,11.05
2024-03-15T15:20:36.870Z,10.98
2024-03-15T15:23:07.513Z,13.13
2024-03-15T15:25:36.483Z,12.15
2024-03-15T15:28:05.715Z,7.43
2024-03-15T15:30:34.531Z,10.30
2024-03-15T15:33:02.809Z,15.60
2024-03-15T15:35:31.111Z,13.98
2024-03-15T15:37:59.827Z,15.02
2024-03-15T15:40:31.124Z,14.93
2024-03-15T15:43:00.794Z,13.93
2024-03-15T15:45:33.287Z,10.65
2024-03-15T15:48:02.749Z,16.88
2024-03-15T15:50:31.208Z,14.18
2024-03-15T15:52:59.035Z,16.98
2024-03-15T15:55:27.349Z,16.65
2024-03-15T15:57:56.394Z,16.40
2024-03-15T16:00:25.302Z,15.13
2024-03-15T16:02:53.550Z,15.20
2024-03-15T16:05:21.552Z,17.25
2024-03-15T16:07:49.684Z,15.63
2024-03-15T16:10:18.335Z,21.25
2024-03-15T16:12:47.162Z,15.38
2024-03-15T16:15:15.115Z,16.50
2024-03-15T16:17:43.053Z,13.45
2024-03-15T16:20:11.312Z,16.33
2024-03-15T16:22:39.423Z,21.83
2024-03-15T16:25:07.991Z,17.02
2024-03-15T16:27:36.020Z,13.60
2024-03-15T16:30:05.703Z,14.20
2024-03-15T16:32:34.194Z,10.85
2024-03-15T16:35:05.655Z,19.00
2024-03-15T16:37:33.681Z,16.05
2024-03-15T16:40:01.835Z,20.15
2024-03-15T16:42:30.135Z,16.95
2024-03-15T16:44:59.158Z,17.50
2024-03-15T16:47:27.139Z,15.63
2024-03-15T16:49:55.094Z,15.30
2024-03-15T16:52:23.643Z,12.82
2024-03-15T16:54:51.697Z,19.92
2024-03-15T16:57:19.573Z,25.67
2024-03-15T16:59:47.469Z,22.85
2024-03-15T17:02:15.458Z,22.73
2024-03-15T17:04:43.333Z,15.20
2024-03-15T17:07:11.942Z,29.20
2024-03-15T17:09:40.104Z,27.48
2024-03-15T17:12:08.352Z,21.83
2024-03-15T17:14:36.397Z,15.25
2024-03-15T17:17:04.933Z,14.70
2024-03-15T17:19:32.913Z,24.80
2024-03-15T17:22:01.050Z,12.05
2024-03-15T17:24:29.333Z,17.67
2024-03-15T17:26:57.256Z,16.60
2024-03-15T17:29:25.206Z,23.25
2024-03-15T17:31:53.277Z,24.88
2024-03-15T17:34:21.298Z,16.73
2024-03-15T17:36:49.459Z,23.95
2024-03-15T17:39:21.807Z,20.45
2024-03-15T17:41:49.829Z,19.10
2024-03-15T17:44:18.410Z,14.85
2024-03-15T17:46:47.737Z,29.35
2024-03-15T17:49:17.057Z,18.33
2024-03-15T17:51:46.954Z,19.17
2024-03-15T17:54:14.934Z,23.77
2024-03-15T17:56:44.312Z,19.17
2024-03-15T17:59:12.328Z,17.92
2024-03-15T18:01:40.391Z,18.33
2024-03-15T18:04:08.431Z,21.33
2024-03-15T18:06:36.466Z,17.40
2024-03-15T18:09:04.967Z,17.20
2024-03-15T18:11:32.961Z,32.70
2024-03-15T18:14:00.916Z,33.08
2024-03-15T18:16:29.038Z,19.83
2024-03-15T18:18:57.083Z,19.52
2024-03-15T18:21:25.171Z,43.35
2024-03-15T18:23:53.303Z,27.10
2024-03-15T18:26:22.012Z,26.65
2024-03-15T18:28:50.059Z,18.02
2024-03-15T18:31:17.946Z,28.38
2024-03-15T18:33:45.893Z,23.95
2024-03-15T18:36:15.416Z,21.13
2024-03-15T18:38:43.493Z,20.80
2024-03-15T18:41:12.474Z,20.65
2024-03-15T18:43:40.537Z,31.52
2024-03-15T18:46:09.462Z,29.35
2024-03-15T18:48:37.938Z,22.33
2024-03-15T18:51:06.485Z,22.92
2024-03-15T18:53:34.452Z,22.52
2024-03-15T18:56:02.701Z,24.52
2024-03-15T18:58:30.906Z,24.92
2024-03-15T19:01:01.439Z,39.83
2024-03-15T19:03:29.609Z,22.48
2024-03-15T19:05:57.566Z,22.13
2024-03-15T19:08:25.587Z,21.85
2024-03-15T19:10:53.760Z,17.42
2024-03-15T19:13:21.642Z,17.30
2024-03-15T19:15:49.626Z,20.67
2024-03-15T19:18:18.514Z,27.67
2024-03-15T19:20:46.521Z,22.98
2024-03-15T19:23:16.358Z,20.70
2024-03-15T19:25:44.561Z,23.35
2024-03-15T19:28:12.448Z,21.02
2024-03-15T19:30:40.526Z,28.33
2024-03-15T19:33:09.582Z,29.30
2024-03-15T19:35:40.546Z,30.23
2024-03-15T19:38:08.459Z,24.65
2024-03-15T19:40:36.379Z,32.25
2024-03-15T19:43:04.977Z,30.50
2024-03-15T19:45:33.055Z,38.85
2024-03-15T19:48:01.102Z,27.35
2024-03-15T19:50:29.008Z,44.10
2024-03-15T19:52:56.827Z,41.42
2024-03-15T19:55:25.043Z,30.65
2024-03-15T19:57:53.015Z,22.45
2024-03-15T20:00:21.032Z,33.03
2024-03-15T20:02:49.408Z,28.05
2024-03-15T20:05:18.747Z,33.97
2024-03-15T20:07:46.795Z,40.65
2024-03-15T20:10:15.107Z,25.45
2024-03-15T20:12:43.345Z,30.83
2024-03-15T20:15:11.634Z,29.50
2024-03-15T20:17:39.629Z,33.30
2024-03-15T20:20:58.695Z,32.05
2024-03-15T20:23:27.258Z,28.95
2024-03-15T20:25:55.236Z,26.75
2024-03-15T20:28:23.718Z,36.38
2024-03-15T20:30:53.893Z,40.30
2024-03-15T20:33:23.677Z,29.58
2024-03-15T20:35:51.782Z,25.17
2024-03-15T20:38:19.604Z,35.17
2024-03-15T20:40:48.866Z,41.17
2024-03-15T20:43:16.725Z,43.75
2024-03-15T20:45:44.591Z,37.05
2024-03-15T20:48:12.494Z,42.03
2024-03-15T20:50:40.499Z,34.40
2024-03-15T20:53:08.729Z,27.88
2024-03-15T20:55:36.712Z,35.17
2024-03-15T20:58:06.718Z,29.70
2024-03-15T21:00:36.490Z,32.42
2024-03-15T21:03:04.861Z,34.22
2024-03-15T21:05:33.064Z,39.33
2024-03-15T21:08:01.149Z,31.98
2024-03-15T21:10:30.362Z,35.75
2024-03-15T21:12:58.446Z,48.17
2024-03-15T21:15:27.997Z,33.30
2024-03-15T21:17:56.599Z,34.03
2024-03-15T21:20:27.308Z,35.67
2024-03-15T21:22:55.323Z,35.95
2024-03-15T21:25:27.985Z,38.13
2024-03-15T21:27:58.077Z,36.00
2024-03-15T21:30:29.706Z,38.60
2024-03-15T21:32:58.135Z,37.27
2024-03-15T21:35:27.740Z,38.33
2024-03-15T21:37:55.901Z,44.55
2024-03-15T21:40:26.269Z,41.70
2024-03-15T21:42:55.450Z,42.80
2024-03-15T21:45:23.940Z,58.85
2024-03-15T21:47:52.396Z,49.00
2024-03-15T21:50:20.466Z,39.60
2024-03-15T21:52:49.932Z,32.97
2024-03-15T21:55:22.321Z,41.72
2024-03-15T21:57:51.379Z,35.50
2024-03-15T22:00:27.433Z,37.47
2024-03-15T22:02:56.831Z,43.25
2024-03-15T22:05:24.865Z,38.28
2024-03-15T22:07:54.082Z,40.55
2024-03-15T22:10:22.012Z,41.58
2024-03-15T22:12:50.624Z,39.78
2024-03-15T22:15:20.487Z,43.58
2024-03-15T22:17:48.560Z,35.72
2024-03-15T22:20:16.536Z,37.80
2024-03-15T22:22:44.964Z,31.33
2024-03-15T22:25:24.163Z,39.78
2024-03-15T22:27:56.021Z,37.13
2024-03-15T22:30:24.674Z,43.15
2024-03-15T22:32:53.727Z,57.03
2024-03-15T22:35:21.814Z,37.35
2024-03-15T22:37:49.759Z,46.20
2024-03-15T22:40:18.886Z,37.45
2024-03-15T22:42:47.287Z,41.45
2024-03-15T22:45:15.615Z,52.22
2024-03-15T22:47:43.556Z,44.42
2024-03-15T22:50:12.593Z,37.50
2024-03-15T22:52:40.870Z,40.80
2024-03-15T22:55:09.239Z,37.75
2024-03-15T22:57:37.306Z,41.90
2024-03-15T23:00:08.231Z,45.22
2024-03-15T23:02:36.325Z,45.83
2024-03-15T23:05:05.164Z,38.20
2024-03-15T23:07:33.013Z,42.83
2024-03-15T23:10:01.191Z,54.00
2024-03-15T23:12:29.489Z,42.25
2024-03-15T23:14:57.626Z,48.17
2024-03-15T23:17:25.783Z,44.95
2024-03-15T23:19:54.481Z,59.63
2024-03-15T23:22:22.424Z,44.78
2024-03-15T23:24:50.767Z,32.42
2024-03-15T23:27:18.759Z,41.03
2024-03-15T23:29:46.981Z,48.22
2024-03-15T23:32:15.779Z,56.88
2024-03-15T23:34:44.504Z,41.33
2024-03-15T23:37:13.519Z,38.50
2024-03-15T23:39:41.568Z,27.75
2024-03-15T23:42:09.488Z,47.13
2024-03-15T23:44:40.433Z,56.30
2024-03-15T23:47:09.226Z,53.75
2024-03-15T23:49:38.140Z,50.92
2024-03-15T23:52:06.877Z,44.30
2024-03-15T23:54:35.169Z,52.65
2024-03-15T23:57:03.120Z,35.30
2024-03-15T23:59:31.406Z,41.15
